createdAt,value
2018-10-09T00:00:01.623Z,8.77
2018-10-09T00:02:31.177Z,9.07
2018-10-09T00:05:00.714Z,9.20
2018-10-09T00:07:30.260Z,8.83
2018-10-09T00:09:59.750Z,8.53
2018-10-09T00:12:29.306Z,8.57
2018-10-09T00:14:58.917Z,8.80
2018-10-09T00:17:28.460Z,8.57
2018-10-09T00:19:57.999Z,8.47
2018-10-09T00:22:27.665Z,9.00
2018-10-09T00:24:57.243Z,9.00
2018-10-09T00:27:26.783Z,8.47
2018-10-09T00:29:56.296Z,8.77
2018-10-09T00:32:25.836Z,8.67
2018-10-09T00:34:55.390Z,8.30
2018-10-09T00:37:24.897Z,8.73
2018-10-09T00:39:54.466Z,8.50
2018-10-09T00:42:23.961Z,8.90
2018-10-09T00:44:53.567Z,8.80
2018-10-09T00:47:23.168Z,8.17
2018-10-09T00:49:52.747Z,8.63
2018-10-09T00:52:22.473Z,7.80
2018-10-09T00:54:52.091Z,8.33
2018-10-09T00:57:21.638Z,8.50
2018-10-09T00:59:51.239Z,9.73
2018-10-09T01:02:20.739Z,12.10
2018-10-09T01:04:50.331Z,9.97
2018-10-09T01:07:19.960Z,9.57
2018-10-09T01:09:49.470Z,9.97
2018-10-09T01:12:18.971Z,9.20
2018-10-09T01:14:48.486Z,8.70
2018-10-09T01:17:18.036Z,9.03
2018-10-09T01:19:47.594Z,8.83
2018-10-09T01:22:17.108Z,9.13
2018-10-09T01:24:46.669Z,10.10
2018-10-09T01:27:16.220Z,9.50
2018-10-09T01:29:45.787Z,9.13
2018-10-09T01:32:15.331Z,10.70
2018-10-09T01:34:44.859Z,11.43
2018-10-09T01:37:14.424Z,11.47
2018-10-09T01:39:43.961Z,12.17
2018-10-09T01:42:13.522Z,12.37
2018-10-09T01:44:43.063Z,13.27
2018-10-09T01:47:12.638Z,14.00
2018-10-09T01:49:42.190Z,14.70
2018-10-09T01:52:11.736Z,13.97
2018-10-09T01:54:41.296Z,15.77
2018-10-09T01:57:10.794Z,16.27
2018-10-09T01:59:40.344Z,16.30
2018-10-09T02:02:09.851Z,15.80
2018-10-09T02:04:39.406Z,15.67
2018-10-09T02:07:08.929Z,16.20
2018-10-09T02:09:38.474Z,18.13
2018-10-09T02:12:08.001Z,18.30
2018-10-09T02:14:37.541Z,19.00
2018-10-09T02:17:07.170Z,19.17
2018-10-09T02:19:36.742Z,20.00
2018-10-09T02:22:06.441Z,19.33
2018-10-09T02:24:35.978Z,18.23
2018-10-09T02:27:05.584Z,19.77
2018-10-09T02:29:35.166Z,19.10
2018-10-09T02:32:04.766Z,18.50
2018-10-09T02:34:34.335Z,16.43
2018-10-09T02:37:03.880Z,13.13
2018-10-09T02:39:33.392Z,13.33
2018-10-09T02:42:02.927Z,12.83
2018-10-09T02:44:32.479Z,12.10
2018-10-09T02:47:02.082Z,13.50
2018-10-09T02:49:31.635Z,15.87
2018-10-09T02:52:01.206Z,20.53
2018-10-09T02:54:30.781Z,20.27
2018-10-09T02:57:00.287Z,20.10
2018-10-09T02:59:29.866Z,18.77
2018-10-09T03:01:59.381Z,19.90
2018-10-09T03:04:28.929Z,18.87
2018-10-09T03:06:58.438Z,20.43
2018-10-09T03:09:27.980Z,18.43
2018-10-09T03:11:57.562Z,17.77
2018-10-09T03:14:27.057Z,18.37
2018-10-09T03:16:56.564Z,17.80
2018-10-09T03:19:26.118Z,14.17
2018-10-09T03:21:55.621Z,13.63
2018-10-09T03:24:25.238Z,11.97
2018-10-09T03:26:54.791Z,11.63
2018-10-09T03:29:24.323Z,10.83
2018-10-09T03:31:53.862Z,10.70
2018-10-09T03:34:23.472Z,10.30
2018-10-09T03:36:53.019Z,10.70
2018-10-09T03:39:22.564Z,11.97
2018-10-09T03:41:52.115Z,11.37
2018-10-09T03:44:21.627Z,12.83
2018-10-09T03:46:51.238Z,14.83
2018-10-09T03:49:20.737Z,15.27
2018-10-09T03:51:50.286Z,15.30
2018-10-09T03:54:19.834Z,15.53
2018-10-09T03:56:49.327Z,17.13
2018-10-09T03:59:18.854Z,16.60
2018-10-09T04:01:48.430Z,16.10
2018-10-09T04:04:18.022Z,16.70
2018-10-09T04:06:47.556Z,17.80
2018-10-09T04:09:17.117Z,20.73
2018-10-09T04:11:46.711Z,19.43
2018-10-09T04:14:16.273Z,18.40
2018-10-09T04:16:45.853Z,19.90
2018-10-09T04:19:15.390Z,20.20
2018-10-09T04:21:44.954Z,20.70
2018-10-09T04:24:14.523Z,20.63
2018-10-09T04:26:44.078Z,20.43
2018-10-09T04:29:13.643Z,21.03
2018-10-09T04:31:43.150Z,20.70
2018-10-09T04:34:12.703Z,21.03
2018-10-09T04:36:42.202Z,23.33
2018-10-09T04:39:11.787Z,20.63
2018-10-09T04:41:41.302Z,21.00
2018-10-09T04:44:11.041Z,20.83
2018-10-09T04:46:40.626Z,21.53
2018-10-09T04:49:10.167Z,20.60
2018-10-09T04:51:39.650Z,18.23
2018-10-09T04:54:09.199Z,18.93
2018-10-09T04:56:38.711Z,18.73
2018-10-09T04:59:08.286Z,18.20
2018-10-09T05:01:37.886Z,19.17
2018-10-09T05:04:07.502Z,18.57
2018-10-09T05:06:37.137Z,18.33
2018-10-09T05:09:09.705Z,17.93
2018-10-09T05:11:39.253Z,17.10
2018-10-09T05:14:08.967Z,17.20
2018-10-09T05:16:39.387Z,20.63
2018-10-09T05:19:08.939Z,16.03
2018-10-09T05:21:38.510Z,16.57
2018-10-09T05:24:08.183Z,16.27
2018-10-09T05:26:38.198Z,14.83
2018-10-09T05:29:07.825Z,14.57
2018-10-09T05:31:37.413Z,14.17
2018-10-09T05:34:07.610Z,12.60
2018-10-09T05:36:37.240Z,13.30
2018-10-09T05:39:08.478Z,14.10
2018-10-09T05:41:38.354Z,12.80
2018-10-09T05:44:08.046Z,12.67
2018-10-09T05:46:37.714Z,13.07
2018-10-09T05:49:07.324Z,12.10
2018-10-09T05:51:36.881Z,12.47
2018-10-09T05:54:06.459Z,12.57
2018-10-09T05:56:36.011Z,13.57
2018-10-09T05:59:05.661Z,12.10
2018-10-09T06:01:35.230Z,14.23
2018-10-09T06:04:05.023Z,14.20
2018-10-09T06:06:34.646Z,12.60
2018-10-09T06:09:04.805Z,12.87
2018-10-09T06:11:34.475Z,13.57
2018-10-09T06:14:04.359Z,13.50
2018-10-09T06:16:33.931Z,13.37
2018-10-09T06:19:03.446Z,14.03
2018-10-09T06:21:33.022Z,13.10
2018-10-09T06:24:02.746Z,12.43
2018-10-09T06:26:33.521Z,13.97
2018-10-09T06:29:03.085Z,11.80
2018-10-09T06:31:32.655Z,11.73
2018-10-09T06:34:02.308Z,10.70
2018-10-09T06:36:31.834Z,11.40
2018-10-09T06:39:02.043Z,10.53
2018-10-09T06:41:31.778Z,13.47
2018-10-09T06:44:01.306Z,11.07
2018-10-09T06:46:30.932Z,8.57
2018-10-09T06:49:00.478Z,10.07
2018-10-09T06:51:30.076Z,8.83
2018-10-09T06:53:59.931Z,8.50
2018-10-09T06:56:29.349Z,8.90
2018-10-09T06:58:59.162Z,8.73
2018-10-09T07:01:28.722Z,7.27
2018-10-09T07:03:58.277Z,7.53
2018-10-09T07:06:27.844Z,7.67
2018-10-09T07:08:57.601Z,8.07
2018-10-09T07:11:27.202Z,12.03
2018-10-09T07:13:56.811Z,8.50
2018-10-09T07:16:26.359Z,8.10
2018-10-09T07:18:55.864Z,8.57
2018-10-09T07:21:25.452Z,8.93
2018-10-09T07:23:54.994Z,8.00
2018-10-09T07:26:24.632Z,8.37
2018-10-09T07:28:54.190Z,7.70
2018-10-09T07:31:23.843Z,8.13
2018-10-09T07:33:53.407Z,8.07
2018-10-09T07:36:22.983Z,7.90
2018-10-09T07:38:52.511Z,7.50
2018-10-09T07:41:22.137Z,7.33
2018-10-09T07:43:51.741Z,8.93
2018-10-09T07:46:21.243Z,7.30
2018-10-09T07:48:50.773Z,7.60
2018-10-09T07:51:20.682Z,7.73
2018-10-09T07:53:50.175Z,6.90
2018-10-09T07:56:19.744Z,6.60
2018-10-09T07:58:49.369Z,6.70
2018-10-09T08:01:18.921Z,8.47
2018-10-09T08:03:48.446Z,7.63
2018-10-09T08:06:17.983Z,7.00
2018-10-09T08:08:47.523Z,8.80
2018-10-09T08:11:17.414Z,7.37
2018-10-09T08:13:46.993Z,7.30
2018-10-09T08:16:16.579Z,8.00
2018-10-09T08:19:18.569Z,7.70
2018-10-09T08:21:48.279Z,7.30
2018-10-09T08:24:17.833Z,8.17
2018-10-09T08:26:47.382Z,7.30
2018-10-09T08:29:16.862Z,7.20
2018-10-09T08:31:46.402Z,7.63
2018-10-09T08:34:15.922Z,7.07
2018-10-09T08:36:45.550Z,6.70
2018-10-09T08:39:15.080Z,6.80
2018-10-09T08:41:44.646Z,5.40
2018-10-09T08:44:14.134Z,5.57
2018-10-09T08:46:43.703Z,6.13
2018-10-09T08:49:13.447Z,6.33
2018-10-09T08:51:43.027Z,5.83
2018-10-09T08:54:12.654Z,4.40
2018-10-09T08:56:42.176Z,4.90
2018-10-09T08:59:12.066Z,3.93
2018-10-09T09:01:41.575Z,3.80
2018-10-09T09:04:11.137Z,5.60
2018-10-09T09:06:40.756Z,5.03
2018-10-09T09:09:11.594Z,5.30
2018-10-09T09:11:41.212Z,4.60
2018-10-09T09:14:10.823Z,3.20
2018-10-09T09:16:40.295Z,2.80
2018-10-09T09:19:09.790Z,2.93
2018-10-09T09:21:39.333Z,3.20
2018-10-09T09:24:08.962Z,3.10
2018-10-09T09:26:38.799Z,2.20
2018-10-09T09:29:08.222Z,2.20
2018-10-09T09:31:37.810Z,2.53
2018-10-09T09:34:07.355Z,3.00
2018-10-09T09:36:36.938Z,2.60
2018-10-09T09:39:08.307Z,2.63
2018-10-09T09:41:38.279Z,2.70
2018-10-09T09:44:07.919Z,2.50
2018-10-09T09:46:37.454Z,2.47
2018-10-09T09:49:07.303Z,2.37
2018-10-09T09:51:36.844Z,2.77
2018-10-09T09:54:06.499Z,2.60
2018-10-09T09:56:36.162Z,2.50
2018-10-09T09:59:05.842Z,2.40
2018-10-09T10:01:42.021Z,2.40
2018-10-09T10:04:12.435Z,2.33
2018-10-09T10:06:42.380Z,2.30
2018-10-09T10:09:12.503Z,2.10
2018-10-09T10:11:42.005Z,2.70
2018-10-09T10:14:11.556Z,2.47
2018-10-09T10:16:41.127Z,2.27
2018-10-09T10:19:10.722Z,2.40
2018-10-09T10:21:40.243Z,2.10
2018-10-09T10:24:09.795Z,2.30
2018-10-09T10:26:39.334Z,2.80
2018-10-09T10:29:08.919Z,2.63
2018-10-09T10:31:38.499Z,2.33
2018-10-09T10:34:08.103Z,2.77
2018-10-09T10:36:37.680Z,3.10
2018-10-09T10:39:10.111Z,2.30
2018-10-09T10:41:39.684Z,2.50
2018-10-09T10:44:09.214Z,2.37
2018-10-09T10:46:39.522Z,2.63
2018-10-09T10:49:10.600Z,2.90
2018-10-09T10:51:40.136Z,2.87
2018-10-09T10:54:09.711Z,2.97
2018-10-09T10:56:39.246Z,3.00
2018-10-09T10:59:08.874Z,2.67
2018-10-09T11:01:38.401Z,2.83
2018-10-09T11:04:07.975Z,4.07
2018-10-09T11:06:37.559Z,3.27
2018-10-09T11:09:09.571Z,2.50
2018-10-09T11:11:39.118Z,2.90
2018-10-09T11:14:08.655Z,2.93
2018-10-09T11:16:38.448Z,3.87
2018-10-09T11:19:08.029Z,3.20
2018-10-09T11:21:37.606Z,2.87
2018-10-09T11:24:08.807Z,2.90
2018-10-09T11:26:38.366Z,2.70
2018-10-09T11:29:07.914Z,4.00
2018-10-09T11:31:37.441Z,3.93
2018-10-09T11:34:07.675Z,2.50
2018-10-09T11:36:37.272Z,3.20
2018-10-09T11:39:08.173Z,2.50
2018-10-09T11:41:38.051Z,5.07
2018-10-09T11:44:07.840Z,2.70
2018-10-09T11:46:37.803Z,2.50
2018-10-09T11:49:07.820Z,2.80
2018-10-09T11:51:37.376Z,3.40
2018-10-09T11:54:07.070Z,2.50
2018-10-09T11:56:36.798Z,2.67
2018-10-09T11:59:06.513Z,3.10
2018-10-09T12:01:36.107Z,2.43
2018-10-09T12:04:05.698Z,2.87
2018-10-09T12:06:35.306Z,3.10
2018-10-09T12:09:06.479Z,2.53
2018-10-09T12:11:36.008Z,3.10
2018-10-09T12:14:05.584Z,2.80
2018-10-09T12:16:35.186Z,4.03
2018-10-09T12:19:04.744Z,2.73
2018-10-09T12:21:34.418Z,2.67
2018-10-09T12:24:03.948Z,2.40
2018-10-09T12:26:33.568Z,2.30
2018-10-09T12:29:03.355Z,3.00
2018-10-09T12:31:33.188Z,3.37
2018-10-09T12:34:02.754Z,3.20
2018-10-09T12:36:32.298Z,2.87
2018-10-09T12:39:01.991Z,3.00
2018-10-09T12:41:31.538Z,3.43
2018-10-09T12:44:01.142Z,3.10
2018-10-09T12:46:30.690Z,2.97
2018-10-09T12:51:32.126Z,3.13
2018-10-09T12:54:01.816Z,3.20
2018-10-09T12:56:31.425Z,2.80
2018-10-09T12:59:01.063Z,2.73
2018-10-09T13:01:30.698Z,2.60
2018-10-09T13:04:00.199Z,2.63
2018-10-09T13:06:29.791Z,3.40
2018-10-09T13:08:59.606Z,3.07
2018-10-09T13:11:29.186Z,3.50
2018-10-09T13:13:58.724Z,2.80
2018-10-09T13:16:28.254Z,3.77
2018-10-09T13:18:57.852Z,3.20
2018-10-09T13:21:27.522Z,2.90
2018-10-09T13:23:56.968Z,2.50
2018-10-09T13:26:26.554Z,2.60
2018-10-09T13:28:56.278Z,3.03
2018-10-09T13:31:25.850Z,3.67
2018-10-09T13:33:55.416Z,2.93
2018-10-09T13:36:24.980Z,2.57
2018-10-09T13:38:54.537Z,2.90
2018-10-09T13:41:24.079Z,2.80
2018-10-09T13:43:53.757Z,3.23
2018-10-09T13:46:23.355Z,2.90
2018-10-09T13:48:52.888Z,2.77
2018-10-09T13:51:22.464Z,2.80
2018-10-09T13:53:52.062Z,3.07
2018-10-09T13:56:21.610Z,3.97
2018-10-09T13:58:51.150Z,4.10
2018-10-09T14:01:20.722Z,3.97
2018-10-09T14:03:50.276Z,2.50
2018-10-09T14:06:19.928Z,2.97
2018-10-09T14:08:49.750Z,2.70
2018-10-09T14:11:19.250Z,2.60
2018-10-09T14:13:48.875Z,3.40
2018-10-09T14:16:18.530Z,4.13
2018-10-09T14:18:48.193Z,2.77
2018-10-09T14:21:17.711Z,3.13
2018-10-09T14:23:47.355Z,3.10
2018-10-09T14:26:17.062Z,2.33
2018-10-09T14:28:46.621Z,3.00
2018-10-09T14:31:16.298Z,2.37
2018-10-09T14:33:45.935Z,2.80
2018-10-09T14:36:15.482Z,2.87
2018-10-09T14:38:45.141Z,2.80
2018-10-09T14:41:14.705Z,2.53
2018-10-09T14:43:44.267Z,2.87
2018-10-09T14:46:13.828Z,2.73
2018-10-09T14:48:43.494Z,2.60
2018-10-09T14:51:13.030Z,5.00
2018-10-09T14:53:42.599Z,5.00
2018-10-09T14:56:12.103Z,5.70
2018-10-09T14:58:41.686Z,3.90
2018-10-09T15:01:11.214Z,3.40
2018-10-09T15:03:40.800Z,4.10
2018-10-09T15:06:10.322Z,5.23
2018-10-09T15:08:39.908Z,5.37
2018-10-09T15:11:09.498Z,6.30
2018-10-09T15:13:39.039Z,9.53
2018-10-09T15:16:08.610Z,17.33
2018-10-09T15:18:38.162Z,14.30
2018-10-09T15:21:08.350Z,15.03
2018-10-09T15:23:37.854Z,15.37
2018-10-09T15:26:08.046Z,13.27
2018-10-09T15:28:37.558Z,11.63
2018-10-09T15:31:07.220Z,10.30
2018-10-09T15:33:36.741Z,9.43
2018-10-09T15:36:06.325Z,8.03
2018-10-09T15:38:35.919Z,10.80
2018-10-09T15:41:05.466Z,9.00
2018-10-09T15:43:35.023Z,8.87
2018-10-09T15:46:04.663Z,8.20
2018-10-09T15:48:34.211Z,7.83
2018-10-09T15:51:03.824Z,6.93
2018-10-09T15:53:33.353Z,8.63
2018-10-09T15:56:02.945Z,10.10
2018-10-09T15:58:32.568Z,9.73
2018-10-09T16:01:02.138Z,9.53
2018-10-09T16:03:31.651Z,9.03
2018-10-09T16:06:01.243Z,7.97
2018-10-09T16:08:30.752Z,8.43
2018-10-09T16:11:00.376Z,8.33
2018-10-09T16:13:29.923Z,7.40
2018-10-09T16:15:59.511Z,7.10
2018-10-09T16:18:29.026Z,6.97
2018-10-09T16:20:58.563Z,9.17
2018-10-09T16:23:28.062Z,9.07
2018-10-09T16:25:57.609Z,5.93
2018-10-09T16:28:27.147Z,7.30
2018-10-09T16:30:56.709Z,7.10
2018-10-09T16:33:26.254Z,7.00
2018-10-09T16:35:55.761Z,9.23
2018-10-09T16:38:25.482Z,10.00
2018-10-09T16:40:54.994Z,9.00
2018-10-09T16:43:24.601Z,9.73
2018-10-09T16:45:54.159Z,5.50
2018-10-09T16:48:23.658Z,5.17
2018-10-09T16:50:53.194Z,4.57
2018-10-09T16:53:22.762Z,5.23
2018-10-09T16:55:52.340Z,4.90
2018-10-09T16:58:21.846Z,7.57
2018-10-09T17:00:51.482Z,6.10
2018-10-09T17:03:20.996Z,10.27
2018-10-09T17:05:50.563Z,7.30
2018-10-09T17:08:20.088Z,8.47
2018-10-09T17:10:49.649Z,8.10
2018-10-09T17:13:19.186Z,7.60
2018-10-09T17:15:48.771Z,10.67
2018-10-09T17:18:18.409Z,11.00
2018-10-09T17:20:47.954Z,11.80
2018-10-09T17:23:17.514Z,12.17
2018-10-09T17:25:47.083Z,10.57
2018-10-09T17:28:16.688Z,11.00
2018-10-09T17:30:46.243Z,10.57
2018-10-09T17:33:15.892Z,10.70
2018-10-09T17:35:45.450Z,10.43
2018-10-09T17:38:15.028Z,11.00
2018-10-09T17:40:44.572Z,9.60
2018-10-09T17:43:14.154Z,10.63
2018-10-09T17:45:43.710Z,8.87
2018-10-09T17:48:13.290Z,8.40
2018-10-09T17:50:42.899Z,9.83
2018-10-09T17:53:12.406Z,8.23
2018-10-09T17:55:41.942Z,7.53
2018-10-09T17:58:11.491Z,8.13
2018-10-09T18:00:41.171Z,7.80
2018-10-09T18:03:10.753Z,8.43
2018-10-09T18:05:40.495Z,8.23
2018-10-09T18:08:10.055Z,8.50
2018-10-09T18:10:39.562Z,8.30
2018-10-09T18:13:09.168Z,8.73
2018-10-09T18:15:38.659Z,7.73
2018-10-09T18:18:08.184Z,7.60
2018-10-09T18:20:37.817Z,8.00
2018-10-09T18:23:07.408Z,7.77
2018-10-09T18:25:36.930Z,7.70
2018-10-09T18:28:06.760Z,8.43
2018-10-09T18:30:36.274Z,7.90
2018-10-09T18:33:06.013Z,8.63
2018-10-09T18:35:35.591Z,8.70
2018-10-09T18:38:05.150Z,7.90
2018-10-09T18:40:34.713Z,8.10
2018-10-09T18:43:04.302Z,8.43
2018-10-09T18:45:33.825Z,8.00
2018-10-09T18:48:03.420Z,7.63
2018-10-09T18:50:32.979Z,7.97
2018-10-09T18:53:02.474Z,7.73
2018-10-09T18:55:32.352Z,7.90
2018-10-09T18:58:01.900Z,7.93
2018-10-09T19:00:31.474Z,8.70
2018-10-09T19:03:01.023Z,8.80
2018-10-09T19:05:30.666Z,8.83
2018-10-09T19:08:00.226Z,9.43
2018-10-09T19:10:29.778Z,8.87
2018-10-09T19:12:59.318Z,8.77
2018-10-09T19:15:28.851Z,10.00
2018-10-09T19:17:58.475Z,8.20
2018-10-09T19:20:27.987Z,7.90
2018-10-09T19:22:57.526Z,7.70
2018-10-09T19:25:27.091Z,6.80
2018-10-09T19:27:56.711Z,8.10
2018-10-09T19:30:26.326Z,7.53
2018-10-09T19:32:55.881Z,7.17
2018-10-09T19:35:25.376Z,7.10
2018-10-09T19:37:54.926Z,7.57
2018-10-09T19:40:24.434Z,8.37
2018-10-09T19:42:54.014Z,6.93
2018-10-09T19:45:23.560Z,7.50
2018-10-09T19:47:53.099Z,6.37
2018-10-09T19:50:22.615Z,6.70
2018-10-09T19:52:52.142Z,5.77
2018-10-09T19:55:21.707Z,5.93
2018-10-09T19:57:51.226Z,5.90
2018-10-09T20:00:20.807Z,6.50
2018-10-09T20:02:50.324Z,6.00
2018-10-09T20:05:19.892Z,6.17
2018-10-09T20:07:49.474Z,6.97
2018-10-09T20:10:18.989Z,6.23
2018-10-09T20:12:48.618Z,6.47
2018-10-09T20:15:18.167Z,6.13
2018-10-09T20:17:47.763Z,6.30
2018-10-09T20:20:17.283Z,6.87
2018-10-09T20:22:46.975Z,6.03
2018-10-09T20:25:16.534Z,6.63
2018-10-09T20:27:46.151Z,6.60
2018-10-09T20:30:15.721Z,5.20
2018-10-09T20:32:45.218Z,5.33
2018-10-09T20:35:14.810Z,5.50
2018-10-09T20:37:44.360Z,6.40
2018-10-09T20:40:13.902Z,5.57
2018-10-09T20:42:43.403Z,5.67
2018-10-09T20:45:12.958Z,6.03
2018-10-09T20:47:43.292Z,5.23
2018-10-09T20:50:13.642Z,5.93
2018-10-09T20:52:43.315Z,5.43
2018-10-09T20:55:12.825Z,6.07
2018-10-09T20:57:42.323Z,6.43
2018-10-09T21:00:11.872Z,5.97
2018-10-09T21:02:41.426Z,6.07
2018-10-09T21:05:10.948Z,6.70
2018-10-09T21:07:40.470Z,6.73
2018-10-09T21:10:10.052Z,6.03
2018-10-09T21:12:39.602Z,6.13
2018-10-09T21:15:09.106Z,6.67
2018-10-09T21:17:38.716Z,7.00
2018-10-09T21:20:08.199Z,7.53
2018-10-09T21:22:37.848Z,7.80
2018-10-09T21:25:07.454Z,8.07
2018-10-09T21:27:37.043Z,8.03
2018-10-09T21:30:06.675Z,7.33
2018-10-09T21:32:36.590Z,7.67
2018-10-09T21:35:06.266Z,7.47
2018-10-09T21:37:35.819Z,7.00
2018-10-09T21:40:05.598Z,7.30
2018-10-09T21:42:35.106Z,7.27
2018-10-09T21:45:04.694Z,7.47
2018-10-09T21:47:34.203Z,7.10
2018-10-09T21:50:03.770Z,7.63
2018-10-09T21:52:33.299Z,7.93
2018-10-09T21:55:02.835Z,9.93
2018-10-09T21:57:32.422Z,10.53
2018-10-09T22:00:02.107Z,11.80
2018-10-09T22:02:31.727Z,12.67
2018-10-09T22:05:01.302Z,14.13
2018-10-09T22:07:30.866Z,14.80
2018-10-09T22:10:00.568Z,14.47
2018-10-09T22:12:30.087Z,14.37
2018-10-09T22:14:59.649Z,14.97
2018-10-09T22:17:29.834Z,14.07
2018-10-09T22:19:59.910Z,14.37
2018-10-09T22:22:29.456Z,13.77
2018-10-09T22:24:58.979Z,14.50
2018-10-09T22:27:28.511Z,14.53
2018-10-09T22:29:58.068Z,15.60
2018-10-09T22:32:27.626Z,16.00
2018-10-09T22:34:57.198Z,15.47
2018-10-09T22:37:26.724Z,16.33
2018-10-09T22:39:56.297Z,15.63
2018-10-09T22:42:25.830Z,16.10
2018-10-09T22:44:55.383Z,16.80
2018-10-09T22:47:24.886Z,16.90
2018-10-09T22:49:54.426Z,17.30
2018-10-09T22:52:23.971Z,17.23
2018-10-09T22:54:53.478Z,16.73
2018-10-09T22:57:23.035Z,13.90
2018-10-09T22:59:52.597Z,15.07
2018-10-09T23:02:22.132Z,14.60
2018-10-09T23:04:51.666Z,14.60
2018-10-09T23:07:21.222Z,13.63
2018-10-09T23:09:50.761Z,13.93
2018-10-09T23:12:20.282Z,14.10
2018-10-09T23:14:49.808Z,13.53
2018-10-09T23:17:19.355Z,14.03
2018-10-09T23:19:48.894Z,13.87
2018-10-09T23:22:18.430Z,14.30
2018-10-09T23:24:47.962Z,16.03
2018-10-09T23:27:17.562Z,17.13
2018-10-09T23:29:47.155Z,16.90
2018-10-09T23:32:16.734Z,18.37
2018-10-09T23:34:46.236Z,18.07
2018-10-09T23:37:15.815Z,18.63
2018-10-09T23:39:45.351Z,17.73
2018-10-09T23:42:14.960Z,18.30
2018-10-09T23:44:44.471Z,18.90
2018-10-09T23:47:14.026Z,19.10
2018-10-09T23:49:43.591Z,19.53
2018-10-09T23:52:13.139Z,18.90
2018-10-09T23:54:42.646Z,18.57
2018-10-09T23:57:12.223Z,19.33
2018-10-09T23:59:41.738Z,19.70
